Terminal Aerodrome Forecast
Issued by NWS Wilmington, OH

Current Version | Previous Version | Text Only | Print | Product List | Glossary Off
Versions: 1 2 3 4 5 6 7 8 9 10 11 12 13 14 15 16 17 18 19 20 21 22 23 24 25 26 27 28 29 30 31 32 33 34 35 36 37

000
FTUS41 KILN 271921 AAA
TAFCVG
TAF AMD
KCVG 271921Z 2719/2824 00000KT 6SM HZ SCT015 OVC027
     FM272000 09008KT P6SM VCSH OVC035
      TEMPO 2720/2722 -SHRA OVC025
     FM280300 10006KT 5SM -SHRA BR OVC025
     FM280700 17004KT 3SM BR VCSH OVC008
     FM281400 24008KT P6SM BKN015
     FM281800 26010KT P6SM VCSH BKN035=

USA.gov is the U.S. government's official web portal to all federal, state and local government web resources and services.